createdAt,value
2018-12-26T00:00:57.200Z,5.10
2018-12-26T00:03:35.805Z,5.10
2018-12-26T00:06:17.283Z,5.10
2018-12-26T00:08:58.466Z,5.10
2018-12-26T00:11:39.886Z,5.10
2018-12-26T00:14:20.743Z,5.10
2018-12-26T00:17:02.394Z,5.10
2018-12-26T00:19:43.779Z,5.10
2018-12-26T00:22:25.454Z,5.10
2018-12-26T00:25:05.281Z,5.10
2018-12-26T00:27:46.148Z,5.10
2018-12-26T00:30:33.570Z,5.10
2018-12-26T00:33:10.576Z,5.10
2018-12-26T00:35:52.199Z,5.00
2018-12-26T00:38:35.924Z,5.10
2018-12-26T00:41:17.351Z,5.00
2018-12-26T00:44:13.068Z,5.10
2018-12-26T00:46:44.775Z,5.10
2018-12-26T00:49:26.494Z,5.00
2018-12-26T00:52:07.688Z,5.00
2018-12-26T00:54:48.371Z,5.00
2018-12-26T00:57:29.288Z,5.10
2018-12-26T01:00:10.676Z,5.00
2018-12-26T01:02:51.499Z,5.00
2018-12-26T01:05:32.757Z,5.00
2018-12-26T01:08:13.497Z,5.00
2018-12-26T01:10:56.675Z,5.00
2018-12-26T01:13:49.494Z,5.00
2018-12-26T01:16:31.074Z,5.10
2018-12-26T01:19:14.527Z,5.00
2018-12-26T01:21:55.775Z,5.00
2018-12-26T01:27:46.399Z,5.00
2018-12-26T01:30:29.420Z,5.00
2018-12-26T01:33:12.247Z,5.00
2018-12-26T01:35:53.473Z,4.90
2018-12-26T01:38:24.093Z,4.90
2018-12-26T01:41:13.481Z,4.90
2018-12-26T01:44:02.665Z,4.90
2018-12-26T01:49:15.191Z,4.90
2018-12-26T01:52:03.704Z,4.90
2018-12-26T01:54:45.006Z,4.90
2018-12-26T01:57:26.334Z,4.90
2018-12-26T01:59:55.850Z,4.90
2018-12-26T02:02:45.353Z,4.90
2018-12-26T02:05:26.917Z,4.90
2018-12-26T02:08:08.294Z,4.90
2018-12-26T02:10:49.084Z,4.90
2018-12-26T02:13:29.997Z,4.90
2018-12-26T02:16:11.241Z,4.90
2018-12-26T02:18:52.704Z,4.90
2018-12-26T02:24:49.916Z,4.90
2018-12-26T02:27:38.461Z,4.90
2018-12-26T02:30:29.925Z,4.90
2018-12-26T02:33:18.934Z,4.90
2018-12-26T02:35:59.545Z,4.90
2018-12-26T02:38:41.104Z,4.90
2018-12-26T02:41:22.925Z,5.00
2018-12-26T02:44:04.407Z,4.90
2018-12-26T02:46:33.852Z,5.00
2018-12-26T02:49:22.321Z,5.00
2018-12-26T02:52:11.068Z,4.90
2018-12-26T02:54:51.593Z,5.00
2018-12-26T02:57:41.037Z,4.90
2018-12-26T03:00:22.399Z,5.00
2018-12-26T03:02:51.940Z,5.00
2018-12-26T03:05:59.397Z,4.90
2018-12-26T03:08:48.198Z,4.90
2018-12-26T03:11:30.156Z,4.90
2018-12-26T03:14:11.561Z,4.90
2018-12-26T03:16:53.373Z,5.00
2018-12-26T03:19:34.501Z,4.90
2018-12-26T03:22:16.267Z,4.90
2018-12-26T03:24:59.383Z,5.00
2018-12-26T03:27:40.196Z,4.90
2018-12-26T03:30:21.637Z,5.00
2018-12-26T03:33:03.289Z,5.00
2018-12-26T03:35:44.680Z,4.90
2018-12-26T03:38:14.218Z,5.00
2018-12-26T03:41:03.026Z,5.00
2018-12-26T03:43:44.442Z,5.00
2018-12-26T03:46:25.140Z,5.00
2018-12-26T03:49:07.646Z,5.00
2018-12-26T03:51:48.317Z,5.00
2018-12-26T03:54:29.204Z,5.00
2018-12-26T03:57:10.814Z,5.00
2018-12-26T03:59:51.873Z,5.00
2018-12-26T04:05:17.789Z,5.00
2018-12-26T04:07:58.755Z,5.00
2018-12-26T04:10:40.353Z,5.00
2018-12-26T04:13:09.706Z,5.00
2018-12-26T04:15:58.246Z,5.00
2018-12-26T04:18:46.773Z,5.10
2018-12-26T04:21:28.047Z,5.10
2018-12-26T04:24:08.799Z,5.00
2018-12-26T04:26:50.177Z,5.00
2018-12-26T04:29:34.015Z,5.10
2018-12-26T04:32:15.023Z,5.10
2018-12-26T04:34:56.786Z,5.10
2018-12-26T04:37:26.517Z,5.10
2018-12-26T04:39:56.148Z,5.10
2018-12-26T04:42:44.962Z,5.10
2018-12-26T04:45:33.460Z,5.10
2018-12-26T04:48:14.097Z,5.10
2018-12-26T04:50:55.081Z,5.10
2018-12-26T04:53:36.585Z,5.10
2018-12-26T04:56:06.262Z,5.10
2018-12-26T04:58:55.224Z,5.10
2018-12-26T05:01:24.850Z,5.10
2018-12-26T05:04:15.719Z,5.10
2018-12-26T05:06:57.634Z,4.50
2018-12-26T05:09:39.030Z,5.10
2018-12-26T05:12:20.620Z,5.10
2018-12-26T05:20:59.758Z,5.90
2018-12-26T05:23:39.241Z,5.20
2018-12-26T05:26:09.155Z,5.20
2018-12-26T05:28:58.115Z,5.20
2018-12-26T05:31:46.943Z,5.20
2018-12-26T05:34:30.446Z,5.20
2018-12-26T05:37:11.094Z,5.20
2018-12-26T05:39:52.624Z,5.20
2018-12-26T05:42:34.143Z,5.20
2018-12-26T05:45:16.027Z,5.20
2018-12-26T05:47:57.306Z,5.20
2018-12-26T05:50:38.701Z,5.20
2018-12-26T05:53:19.538Z,5.20
2018-12-26T05:56:01.313Z,5.20
2018-12-26T05:58:42.219Z,5.20
2018-12-26T06:04:05.527Z,5.20
2018-12-26T06:06:47.309Z,5.20
2018-12-26T06:09:29.489Z,5.20
2018-12-26T06:12:11.477Z,5.30
2018-12-26T06:14:52.913Z,5.20
2018-12-26T06:17:35.081Z,5.30
2018-12-26T06:20:16.066Z,5.30
2018-12-26T06:22:57.582Z,5.20
2018-12-26T06:25:26.986Z,5.30
2018-12-26T06:31:15.024Z,5.30
2018-12-26T06:33:56.001Z,5.30
2018-12-26T06:36:37.549Z,5.30
2018-12-26T06:39:08.452Z,5.30
2018-12-26T06:41:57.319Z,5.30
2018-12-26T06:44:45.899Z,5.30
2018-12-26T06:47:26.743Z,5.30
2018-12-26T06:50:07.470Z,5.30
2018-12-26T06:52:49.308Z,5.30
2018-12-26T06:55:28.924Z,5.30
2018-12-26T06:58:09.645Z,5.30
2018-12-26T07:00:49.848Z,5.30
2018-12-26T07:03:38.437Z,5.30
2018-12-26T07:06:27.432Z,5.30
2018-12-26T07:09:34.789Z,5.30
2018-12-26T07:12:24.359Z,5.40
2018-12-26T07:15:05.776Z,5.30
2018-12-26T07:17:46.510Z,5.30
2018-12-26T07:20:28.002Z,5.40
2018-12-26T07:26:07.815Z,5.30
2018-12-26T07:28:37.258Z,5.40
2018-12-26T07:31:25.767Z,5.30
2018-12-26T07:34:14.621Z,5.40
2018-12-26T07:36:56.482Z,5.30
2018-12-26T07:39:38.352Z,5.30
2018-12-26T07:42:19.827Z,5.30
2018-12-26T07:45:00.528Z,5.30
2018-12-26T07:47:42.253Z,5.40
2018-12-26T07:50:23.839Z,5.30
2018-12-26T07:53:05.109Z,5.30
2018-12-26T07:55:46.699Z,5.30
2018-12-26T07:58:28.317Z,5.40
2018-12-26T08:01:09.317Z,5.30
2018-12-26T08:03:50.093Z,5.40
2018-12-26T08:06:31.467Z,5.40
2018-12-26T08:09:12.332Z,5.40
2018-12-26T08:11:53.971Z,5.40
2018-12-26T08:14:35.817Z,5.40
2018-12-26T08:17:05.612Z,5.40
2018-12-26T08:19:56.382Z,5.30
2018-12-26T08:22:44.803Z,5.30
2018-12-26T08:25:25.912Z,5.40
2018-12-26T08:28:07.451Z,5.40
2018-12-26T08:30:48.541Z,5.40
2018-12-26T08:33:29.390Z,5.40
2018-12-26T08:36:10.152Z,5.40
2018-12-26T08:38:50.717Z,5.40
2018-12-26T08:41:20.133Z,5.40
2018-12-26T08:44:08.619Z,5.40
2018-12-26T08:46:49.860Z,5.40
2018-12-26T08:49:30.568Z,5.40
2018-12-26T08:52:11.524Z,5.40
2018-12-26T08:54:52.870Z,5.40
2018-12-26T08:57:22.695Z,5.40
2018-12-26T09:00:11.146Z,5.40
2018-12-26T09:02:52.391Z,5.40
2018-12-26T09:05:33.312Z,5.40
2018-12-26T09:08:14.099Z,5.40
2018-12-26T09:10:55.009Z,5.40
2018-12-26T09:13:35.873Z,5.50
2018-12-26T09:16:15.471Z,5.40
2018-12-26T09:18:57.001Z,5.50
2018-12-26T09:21:39.315Z,5.40
2018-12-26T09:24:20.242Z,5.50
2018-12-26T09:27:02.225Z,5.50
2018-12-26T09:29:43.676Z,5.50
2018-12-26T09:32:16.684Z,5.50
2018-12-26T09:35:07.126Z,5.50
2018-12-26T09:37:56.007Z,5.50
2018-12-26T09:43:57.361Z,5.50
2018-12-26T09:46:31.536Z,5.50
2018-12-26T09:49:21.353Z,5.60
2018-12-26T09:52:42.052Z,5.60
2018-12-26T09:55:41.727Z,5.60
2018-12-26T10:01:36.740Z,5.60
2018-12-26T10:04:18.739Z,5.70
2018-12-26T10:07:00.417Z,5.60
2018-12-26T10:09:41.684Z,5.60
2018-12-26T10:12:24.060Z,5.70
2018-12-26T10:15:05.267Z,5.70
2018-12-26T10:17:47.287Z,5.70
2018-12-26T10:20:29.286Z,5.70
2018-12-26T10:23:16.114Z,5.80
2018-12-26T10:28:48.539Z,5.80
2018-12-26T10:34:31.272Z,5.80
2018-12-26T10:37:13.329Z,5.80
2018-12-26T10:39:54.615Z,5.80
2018-12-26T10:42:36.795Z,5.80
2018-12-26T10:45:18.419Z,5.90
2018-12-26T10:47:59.516Z,5.90
2018-12-26T10:50:41.799Z,5.90
2018-12-26T10:53:30.271Z,5.90
2018-12-26T10:55:59.694Z,5.90
2018-12-26T10:58:48.351Z,5.90
2018-12-26T11:01:29.709Z,5.90
2018-12-26T11:04:11.395Z,6.00
2018-12-26T11:06:52.920Z,6.00
2018-12-26T11:09:34.110Z,6.00
2018-12-26T11:12:08.555Z,6.00
2018-12-26T11:18:09.362Z,6.10
2018-12-26T11:20:53.449Z,6.10
2018-12-26T11:23:38.235Z,6.10
2018-12-26T11:26:19.490Z,6.10
2018-12-26T11:29:00.434Z,6.10
2018-12-26T11:31:45.052Z,6.10
2018-12-26T11:34:25.222Z,6.10
2018-12-26T11:37:36.270Z,6.10
2018-12-26T11:40:17.533Z,6.10
2018-12-26T11:42:47.421Z,6.20
2018-12-26T11:45:38.164Z,6.20
2018-12-26T11:51:44.586Z,6.20
2018-12-26T11:54:25.819Z,6.30
2018-12-26T11:59:53.420Z,6.30
2018-12-26T12:02:41.644Z,6.30
2018-12-26T12:05:25.895Z,6.30
2018-12-26T12:08:10.006Z,6.30
2018-12-26T12:10:56.387Z,6.30
2018-12-26T12:13:38.748Z,6.30
2018-12-26T12:16:23.863Z,6.30
2018-12-26T12:21:47.709Z,6.30
2018-12-26T12:24:17.858Z,6.30
2018-12-26T12:27:11.111Z,6.30
2018-12-26T12:29:55.844Z,6.30
2018-12-26T12:35:22.584Z,6.30
2018-12-26T12:38:12.619Z,6.30
2018-12-26T12:40:42.430Z,6.30
2018-12-26T12:43:42.851Z,6.30
2018-12-26T12:46:20.107Z,6.40
2018-12-26T12:55:12.797Z,6.40
2018-12-26T12:58:04.925Z,6.40
2018-12-26T13:01:34.038Z,6.40
2018-12-26T13:07:17.142Z,6.40
2018-12-26T13:09:59.611Z,6.40
2018-12-26T13:12:46.086Z,6.40
2018-12-26T13:15:27.423Z,6.40
2018-12-26T13:18:09.936Z,6.40
2018-12-26T13:20:54.822Z,6.40
2018-12-26T13:23:39.273Z,6.40
2018-12-26T13:29:30.592Z,6.50
2018-12-26T13:32:15.577Z,6.40
2018-12-26T13:34:56.697Z,6.40
2018-12-26T13:37:40.846Z,6.40
2018-12-26T13:40:22.622Z,6.40
2018-12-26T13:43:06.530Z,6.40
2018-12-26T13:52:34.943Z,6.40
2018-12-26T13:58:16.218Z,6.40
2018-12-26T14:04:15.946Z,6.40
2018-12-26T14:09:49.245Z,6.40
2018-12-26T14:15:47.243Z,6.40
2018-12-26T14:18:31.100Z,6.40
2018-12-26T14:21:38.532Z,6.40
2018-12-26T14:27:17.682Z,6.40
2018-12-26T14:30:10.787Z,6.40
2018-12-26T14:32:43.933Z,6.40
2018-12-26T14:38:13.779Z,6.30
2018-12-26T14:43:37.474Z,6.30
2018-12-26T14:46:19.135Z,6.30
2018-12-26T14:49:26.396Z,6.30
2018-12-26T14:55:12.561Z,6.30
2018-12-26T14:57:55.288Z,6.30
2018-12-26T15:03:02.886Z,6.30
2018-12-26T15:06:14.159Z,6.30
2018-12-26T15:09:05.334Z,6.20
2018-12-26T15:11:49.095Z,6.20
2018-12-26T15:14:31.219Z,6.20
2018-12-26T15:17:12.595Z,6.20
2018-12-26T15:19:52.182Z,6.20
2018-12-26T15:22:42.217Z,6.20
2018-12-26T15:25:24.796Z,6.20
2018-12-26T15:31:00.752Z,6.20
2018-12-26T15:36:28.743Z,6.10
2018-12-26T15:39:09.926Z,6.10
2018-12-26T15:41:57.415Z,6.10
2018-12-26T15:44:38.555Z,6.10
2018-12-26T15:47:08.282Z,6.10
2018-12-26T15:50:00.456Z,6.10
2018-12-26T16:01:56.881Z,6.00
2018-12-26T16:07:36.952Z,6.00
2018-12-26T16:13:06.928Z,6.00
2018-12-26T16:15:52.779Z,6.00
2018-12-26T16:21:38.962Z,6.00
2018-12-26T16:28:20.380Z,6.00
2018-12-26T16:31:09.251Z,6.00
2018-12-26T16:36:47.593Z,5.90
2018-12-26T16:48:38.564Z,5.80
2018-12-26T16:54:42.369Z,5.90
2018-12-26T16:57:23.735Z,5.80
2018-12-26T17:03:18.476Z,5.80
2018-12-26T17:06:00.602Z,5.80
2018-12-26T17:11:51.998Z,5.80
2018-12-26T17:17:29.102Z,5.80
2018-12-26T17:23:26.627Z,5.80
2018-12-26T17:31:59.158Z,5.70
2018-12-26T17:34:40.787Z,5.70
2018-12-26T17:37:22.370Z,5.70
2018-12-26T17:40:09.582Z,5.70
2018-12-26T17:42:51.262Z,5.70
2018-12-26T17:45:34.810Z,5.70
2018-12-26T17:48:18.228Z,5.60
2018-12-26T17:50:59.019Z,5.60
2018-12-26T17:53:42.593Z,5.50
2018-12-26T17:56:23.384Z,5.50
2018-12-26T17:59:04.255Z,5.50
2018-12-26T18:01:45.945Z,5.60
2018-12-26T18:04:26.899Z,5.50
2018-12-26T18:07:09.392Z,5.50
2018-12-26T18:09:54.020Z,5.40
2018-12-26T18:12:35.187Z,5.50
2018-12-26T18:15:18.050Z,5.50
2018-12-26T18:17:59.716Z,5.40
2018-12-26T18:20:41.346Z,5.40
2018-12-26T18:23:23.821Z,5.40
2018-12-26T18:26:15.568Z,5.40
2018-12-26T18:29:04.453Z,5.40
2018-12-26T18:31:36.736Z,5.40
2018-12-26T18:34:17.353Z,5.40
2018-12-26T18:36:58.724Z,5.40
2018-12-26T18:39:53.466Z,5.40
2018-12-26T18:42:31.123Z,5.40
2018-12-26T18:45:20.568Z,5.30
2018-12-26T18:48:02.431Z,5.30
2018-12-26T18:50:48.048Z,5.30
2018-12-26T18:53:50.144Z,5.30
2018-12-26T18:56:18.773Z,5.20
2018-12-26T18:59:18.801Z,5.20
2018-12-26T19:02:01.709Z,5.20
2018-12-26T19:05:02.510Z,5.20
2018-12-26T19:07:34.092Z,5.20
2018-12-26T19:10:16.670Z,5.10
2018-12-26T19:12:59.919Z,5.10
2018-12-26T19:15:33.093Z,5.10
2018-12-26T19:18:21.894Z,5.10
2018-12-26T19:21:29.603Z,5.00
2018-12-26T19:24:11.457Z,5.00
2018-12-26T19:26:52.675Z,5.00
2018-12-26T19:29:34.236Z,5.00
2018-12-26T19:32:17.525Z,5.00
2018-12-26T19:34:59.020Z,4.90
2018-12-26T19:37:41.212Z,4.90
2018-12-26T19:40:12.584Z,4.90
2018-12-26T19:42:43.366Z,4.90
2018-12-26T19:45:33.151Z,4.80
2018-12-26T19:48:23.543Z,4.80
2018-12-26T19:51:06.355Z,4.80
2018-12-26T19:53:46.404Z,4.80
2018-12-26T19:56:39.667Z,4.70
2018-12-26T19:59:12.574Z,4.70
2018-12-26T20:02:04.378Z,4.70
2018-12-26T20:04:45.553Z,4.70
2018-12-26T20:07:27.936Z,4.70
2018-12-26T20:10:09.648Z,4.60
2018-12-26T20:12:50.969Z,4.70
2018-12-26T20:18:14.192Z,4.60
2018-12-26T20:20:56.144Z,4.60
2018-12-26T20:23:37.868Z,4.60
2018-12-26T20:26:19.625Z,4.60
2018-12-26T20:29:19.754Z,4.50
2018-12-26T20:31:56.997Z,4.60
2018-12-26T20:34:38.420Z,4.50
2018-12-26T20:37:15.166Z,4.50
2018-12-26T20:40:04.018Z,4.50
2018-12-26T20:45:56.364Z,4.40
2018-12-26T20:48:40.696Z,4.40
2018-12-26T20:51:25.800Z,4.40
2018-12-26T20:54:08.811Z,4.40
2018-12-26T20:56:59.438Z,4.30
2018-12-26T20:59:49.913Z,4.30
2018-12-26T21:02:36.314Z,4.20
2018-12-26T21:05:19.617Z,4.20
2018-12-26T21:08:11.521Z,4.20
2018-12-26T21:10:53.186Z,4.10
2018-12-26T21:16:39.193Z,4.00
2018-12-26T21:19:15.238Z,4.00
2018-12-26T21:22:05.539Z,4.00
2018-12-26T21:27:25.695Z,3.90
2018-12-26T21:30:07.252Z,3.90
2018-12-26T21:35:38.617Z,3.90
2018-12-26T21:38:24.386Z,3.90
2018-12-26T21:41:09.210Z,3.90
2018-12-26T22:01:45.324Z,3.90
2018-12-26T22:11:00.837Z,3.90
2018-12-26T22:16:32.244Z,3.90
2018-12-26T22:28:12.236Z,3.90
2018-12-26T23:23:32.029Z,3.80
2018-12-26T23:59:49.919Z,3.50
